Latest Coastal Weather Observations for Low Isles

IDQ60701

Issued at 12:02 pm EST Tuesday 26 May 2020 (issued every 10 minutes, with the page automatically refreshed every 10 minutes)

About coastal observations | Map of coastal stations | Coastal observations for QLD | Marine services | Other Formats
Station Details ID: 031037 Name: LOW ISLES LIGHTHOUSE Lat: -16.38 Lon: 145.56 Height: 2.9 m
Data from the previous 72 hours. | See also: Recent months at Low Isles
Date/Time
EST
Wind Sea
Height
m
Swell Vis
km
Cloud Weather Temp
°C
Press
hPa
Rain since
9am
mm
Dir  Spd
kts
Gust
kts
Height
m
Period
s
Dir
26/12:00pm SE 10 14 - - - - - - - 23.0 1018.8 0.0
26/11:30am SE 10 12 - - - - - - - 23.1 1019.3 0.0
26/11:00am SE 11 13 - - - - - - - 22.2 1019.7 0.0
26/10:30am SE 10 14 - - - - - - - 21.7 1020.0 0.0
26/10:00am SE 12 15 - - - - - - - 21.3 1019.9 0.0
26/09:30am SE 11 14 - - - - - - - 21.1 1020.1 0.0
26/09:00am SSE 9 12 - - - - - - - 20.7 1019.9 0.0
26/08:30am S 9 11 - - - - - - - 20.2 1019.6 0.0
26/08:00am S 9 11 - - - - - - - 20.0 1019.2 0.0
26/07:30am S 10 13 - - - - - - - 20.2 1018.9 0.0
26/07:00am SE 12 14 - - - - - - - 20.7 1018.6 0.0
26/06:30am SE 12 15 - - - - - - - 20.5 1018.2 0.0
26/06:00am SE 12 15 - - - - - - - 20.6 1017.9 0.0
26/05:30am SSE 8 11 - - - - - - - 20.4 1017.7 0.0
26/05:00am S 10 12 - - - - - - - 20.3 1017.4 0.0
26/04:30am S 8 11 - - - - - - - 20.3 1017.2 0.0
26/04:00am SSE 9 11 - - - - - - - 20.5 1017.2 0.0
26/03:30am SE 9 11 - - - - - - - 20.7 1017.2 0.0
26/03:00am SSE 11 13 - - - - - - - 21.0 1017.4 0.0
26/02:30am SE 10 13 - - - - - - - 21.1 1017.4 0.0
26/02:00am SE 10 13 - - - - - - - 21.0 1017.5 0.0
26/01:30am SE 10 13 - - - - - - - 21.0 1017.9 0.0
26/01:00am SE 9 12 - - - - - - - 21.1 1017.9 0.0
26/12:30am SE 10 13 - - - - - - - 21.1 1018.0 0.0
26/12:00am SE 10 13 - - - - - - - 21.1 1018.2 0.0
 
Date/Time
EST
Wind Sea
Height
m
Swell Vis
km
Cloud Weather Temp
°C
Press
hPa
Rain since
9am
mm
Dir  Spd
kts
Gust
kts
Height
m
Period
s
Dir
25/11:30pm SE 11 14 - - - - - - - 21.2 1018.4 0.0
25/11:00pm SE 11 14 - - - - - - - 21.1 1018.5 0.0
25/10:30pm SE 10 13 - - - - - - - 21.1 1018.6 0.0
25/10:00pm SE 12 14 - - - - - - - 21.1 1018.7 0.0
25/09:30pm ESE 7 10 - - - - - - - 20.9 1018.5 0.0
25/09:00pm ESE 7 9 - - - - - - - 20.8 1018.4 0.0
25/08:30pm ESE 6 8 - - - - - - - 19.8 1018.3 0.0
25/08:00pm ESE 6 8 - - - - - - - 19.6 1017.7 0.0
25/07:30pm ESE 7 10 - - - - - - - 20.7 1017.5 0.0
25/07:00pm ESE 7 9 - - - - - - - 20.5 1017.3 0.0
25/06:30pm ESE 8 10 - - - - - - - 20.7 1016.7 0.0
25/06:00pm ESE 6 8 - - - - - - - 20.1 1016.3 0.0
25/05:30pm ESE 6 9 - - - - - - - 21.1 1016.2 0.0
25/05:00pm E 7 10 - - - - - - - 21.3 1015.9 0.0
25/04:30pm ESE 9 11 - - - - - - - 21.7 1015.8 0.0
25/04:00pm ESE 8 13 - - - - - - - 22.8 1015.7 0.0
25/03:30pm E 9 13 - - - - - - - 23.1 1015.6 0.0
25/03:00pm E 9 13 - - - - - - - 23.6 1015.8 0.0
25/02:30pm E 8 11 - - - - - - - 23.7 1015.8 0.0
25/02:00pm ESE 9 12 - - - - - - - 23.5 1016.0 0.0
25/01:30pm ESE 9 12 - - - - - - - 23.2 1016.6 0.0
25/01:00pm SE 9 12 - - - - - - - 22.5 1017.1 0.0
25/12:30pm ESE 10 14 - - - - - - - 22.7 1017.7 0.0
25/12:00pm SE 10 13 - - - - - - - 22.1 1018.4 0.0
25/11:30am SE 11 14 - - - - - - - 21.7 1018.8 0.0
25/11:00am SE 11 15 - - - - - - - 21.5 1019.1 0.0
25/10:30am SE 12 14 - - - - - - - 21.1 1019.7 0.0
25/10:00am SE 10 13 - - - - - - - 20.7 1019.7 0.0
25/09:30am SSE 6 8 - - - - - - - 20.3 1019.9 0.0
25/09:00am S 7 9 - - - - - - - 19.8 1019.5 0.0
25/08:30am SSW 9 11 - - - - - - - 19.5 1019.0 0.0
25/08:00am SSW 10 13 - - - - - - - 19.2 1018.8 0.0
25/07:30am SW 10 12 - - - - - - - 19.0 1018.0 0.0
25/07:00am S 9 12 - - - - - - - 19.6 1017.7 0.0
25/06:30am SE 13 16 - - - - - - - 20.4 1017.5 0.0
25/06:00am SE 13 17 - - - - - - - 20.4 1017.0 0.0
25/05:30am SSE 10 17 - - - - - - - 20.0 1016.6 0.0
25/05:00am SSE 9 12 - - - - - - - 19.6 1016.4 0.0
25/04:30am SE 10 12 - - - - - - - 20.0 1016.2 0.0
25/04:00am S 8 10 - - - - - - - 19.8 1016.1 0.0
25/03:30am SSW 9 11 - - - - - - - 19.7 1016.2 0.0
25/03:00am S 7 8 - - - - - - - 19.9 1016.2 0.0
25/02:30am S 8 11 - - - - - - - 20.0 1016.2 0.0
25/02:00am SE 11 14 - - - - - - - 20.6 1016.4 0.0
25/01:30am SE 12 16 - - - - - - - 20.8 1016.7 0.0
25/01:00am SE 12 15 - - - - - - - 20.7 1016.6 0.0
25/12:30am SE 10 13 - - - - - - - 20.7 1016.6 0.0
25/12:00am SE 7 9 - - - - - - - 20.5 1016.9 0.0
 
Date/Time
EST
Wind Sea
Height
m
Swell Vis
km
Cloud Weather Temp
°C
Press
hPa
Rain since
9am
mm
Dir  Spd
kts
Gust
kts
Height
m
Period
s
Dir
24/11:30pm SE 7 8 - - - - - - - 20.1 1016.9 0.0
24/11:00pm SSW 8 11 - - - - - - - 20.2 1017.2 0.0
24/10:30pm SSE 6 9 - - - - - - - 20.5 1017.1 0.0
24/10:00pm SE 6 9 - - - - - - - 20.0 1017.1 0.0
24/09:30pm SE 6 8 - - - - - - - 19.8 1017.0 0.0
24/09:00pm ESE 8 11 - - - - - - - 20.6 1016.8 0.0
24/08:30pm SE 9 11 - - - - - - - 20.8 1016.6 0.0
24/08:00pm SE 7 10 - - - - - - - 20.3 1016.5 0.0
24/07:30pm SE 7 12 - - - - - - - 20.6 1016.2 0.0
24/07:00pm SE 9 11 - - - - - - - 20.4 1015.8 0.0
24/06:30pm ESE 7 9 - - - - - - - 19.4 1015.4 0.0
24/06:00pm ESE 6 8 - - - - - - - 18.4 1015.5 0.0
24/05:30pm ESE 5 8 - - - - - - - 18.9 1015.1 0.0
24/05:00pm SE 6 8 - - - - - - - 20.1 1014.5 0.0
24/04:30pm SE 7 9 - - - - - - - 20.8 1014.4 0.0
24/04:00pm SE 7 10 - - - - - - - 21.1 1014.3 0.0
24/03:30pm SE 7 9 - - - - - - - 20.9 1014.3 0.0
24/03:00pm SSE 4 7 - - - - - - - 20.9 1014.4 0.0
24/02:30pm ESE 5 7 - - - - - - - 21.1 1014.6 0.0
24/02:00pm ESE 7 9 - - - - - - - 21.8 1014.8 0.0
24/01:30pm ESE 9 11 - - - - - - - 21.0 1015.0 0.0
24/01:00pm ESE 10 14 - - - - - - - 21.2 1015.3 0.0
24/12:30pm ESE 11 15 - - - - - - - 20.4 1015.9 0.0
24/12:00pm SE 10 14 - - - - - - - 20.1 1016.2 0.0
24/11:30am SE 11 14 - - - - - - - 19.8 1016.9 0.0
24/11:00am SE 12 15 - - - - - - - 19.6 1017.2 0.0
24/10:30am ESE 12 15 - - - - - - - 19.7 1017.3 0.0
24/10:00am SE 12 14 - - - - - - - 19.7 1017.5 0.0
24/09:30am SE 12 15 - - - - - - - 19.6 1017.2 0.0
24/09:00am SE 14 17 - - - - - - - 19.9 1017.0 4.4
24/08:30am SE 14 18 - - - - - - - 19.6 1016.7 4.4
24/08:00am SE 13 17 - - - - - - - 19.4 1016.3 4.4
24/07:30am SE 12 15 - - - - - - - 19.7 1016.0 4.4
24/07:00am SE 12 14 - - - - - - - 19.6 1015.5 4.4
24/06:30am SE 10 14 - - - - - - - 19.8 1014.9 4.4
24/06:00am SE 11 13 - - - - - - - 20.0 1014.0 4.4
24/05:30am SE 12 16 - - - - - - - 20.0 1014.1 4.4
24/05:00am SSE 11 14 - - - - - - - 20.3 1013.7 4.4
24/04:30am SE 11 14 - - - - - - - 20.3 1013.7 4.4
24/04:00am SE 12 14 - - - - - - - 20.2 1013.6 4.4
24/03:30am SE 15 18 - - - - - - - 20.3 1013.1 4.4
24/03:00am SE 14 16 - - - - - - - 20.4 1013.3 4.4
24/02:30am SE 13 16 - - - - - - - 20.5 1013.4 4.4
24/02:00am SE 14 17 - - - - - - - 20.6 1013.6 4.4
24/01:30am SE 13 16 - - - - - - - 20.5 1014.2 4.4
24/01:00am SE 15 18 - - - - - - - 20.3 1014.4 4.4
24/12:30am SE 17 20 - - - - - - - 20.2 1014.1 4.4
24/12:00am SE 19 22 - - - - - - - 20.0 1014.0 4.4
 
Date/Time
EST
Wind Sea
Height
m
Swell Vis
km
Cloud Weather Temp
°C
Press
hPa
Rain since
9am
mm
Dir  Spd
kts
Gust
kts
Height
m
Period
s
Dir
23/11:30pm SE 19 22 - - - - - - - 20.1 1014.3 4.4
23/11:00pm SE 19 21 - - - - - - - 20.3 1014.8 4.4
23/10:30pm SE 19 22 - - - - - - - 20.5 1014.6 4.4
23/10:00pm SE 20 22 - - - - - - - 20.6 1014.6 4.0
23/09:30pm SE 21 24 - - - - - - - 20.9 1014.5 4.0
23/09:00pm SE 21 24 - - - - - - - 21.1 1014.2 3.8
23/08:30pm SE 17 21 - - - - - - - 21.2 1014.0 3.8
23/08:00pm ESE 15 19 - - - - - - - 21.2 1013.5 3.8
23/07:30pm ESE 13 16 - - - - - - - 20.6 1013.2 3.8
23/07:00pm ESE 13 16 - - - - - - - 20.4 1012.8 3.6
23/06:30pm ESE 13 16 - - - - - - - 20.3 1013.0 3.6
23/06:00pm SE 18 21 - - - - - - Rain 20.9 1013.1 3.4
23/05:30pm ESE 17 19 - - - - - - - 21.0 1012.9 2.8
23/05:00pm ESE 16 20 - - - - - - - 20.9 1012.6 2.8
23/04:30pm ESE 18 20 - - - - - - - 20.6 1012.5 2.8
23/04:00pm ESE 19 23 - - - - - - - 20.6 1012.3 2.8
23/03:30pm ESE 17 22 - - - - - - - 20.9 1012.1 2.6
23/03:00pm ESE 20 24 - - - - - - Recent precip. 21.0 1011.7 2.6
23/02:30pm ESE 19 23 - - - - - - - 21.0 1012.2 2.6
23/02:00pm ESE 18 22 - - - - - - - 21.2 1012.6 2.4
23/01:30pm ESE 17 20 - - - - - - - 21.6 1012.7 2.2
23/01:00pm ESE 15 18 - - - - - - - 21.6 1013.0 2.2
23/12:30pm ESE 12 15 - - - - - - - 21.7 1013.3 2.2

Other formats

Comma delimited format used in spreadsheet applications
http://www.bom.gov.au/fwo/IDQ60701/IDQ60701.94285.axf

JavaScript Object Notation format (JSON) in row-major order
http://www.bom.gov.au/fwo/IDQ60701/IDQ60701.94285.json

Data quality

Most of these data are generated automatically and are frequently updated. Quality checks on data are not normally performed. It is possible for incorrect values to appear. Refer to information at About Latest Weather Observations and please check the disclaimer before using these data.